This is the latest recevied weather packets stored in our database for station/object XE1E-15. If no packets are shown the sender has not sent any weather packets the latest 10 day(s).
| Time | Temp. | Humidity | Pressure | Rain* | Wind** | Luminosity | Snow |
|---|---|---|---|---|---|---|---|
| 1777450295 | 24.44° C | 34% | 1023.9 hPa | - | - | - | - |
| 1777448375 | 24.44° C | 33% | 1024.1 hPa | - | - | - | - |
| 1777447896 | 24.44° C | 32% | 1024.1 hPa | - | - | - | - |
| 1777447028 | 24.44° C | 33% | 1024.2 hPa | - | - | - | - |
| 1777446936 | 24.44° C | 33% | 1024.2 hPa | - | - | - | - |
| 1777445976 | 25° C | 32% | 1024.3 hPa | - | - | - | - |
| 1777445049 | 24.44° C | 32% | 1024.5 hPa | - | - | - | - |
| 1777444056 | 25.56° C | 32% | 1024.7 hPa | - | - | - | - |
| 1777443096 | 25° C | 31% | 1024.7 hPa | - | - | - | - |
| 1777442136 | 25° C | 31% | 1024.9 hPa | - | - | - | - |
| 1777441176 | 25.56° C | 31% | 1025.1 hPa | - | - | - | - |
| 1777440216 | 25.56° C | 32% | 1024.9 hPa | - | - | - | - |
| 1777439256 | 26.11° C | 31% | 1024.9 hPa | - | - | - | - |
| 1777435415 | 26.67° C | 36% | 1024.6 hPa | - | - | - | - |
| 1777434455 | 26.67° C | 36% | 1024.5 hPa | - | - | - | - |
| 1777429655 | 26.11° C | 34% | 1023.7 hPa | - | - | - | - |
| 1777422458 | 28.89° C | 19% | 1022 hPa | - | - | - | - |
| 1777418618 | 30° C | 19% | 1021.4 hPa | - | - | - | - |
| 1777410937 | 31.67° C | 18% | 1022.4 hPa | - | - | - | - |
| 1777409977 | 31.67° C | 18% | 1022.6 hPa | - | - | - | - |
| 1777408056 | 31.11° C | 18% | 1023 hPa | - | - | - | - |
| 1777404695 | 30.56° C | 19% | 1023.9 hPa | - | - | - | - |
| 1777403735 | 31.11° C | 22% | 1024.1 hPa | - | - | - | - |
| 1777400855 | 30° C | 24% | 1025 hPa | - | - | - | - |
| 1777399895 | 32.78° C | 26% | 1025.2 hPa | - | - | - | - |
* Rain since midnight (hover to see other rain measurements)
** Current wind speed in m/s (hover to see current wind gust speed)